Portada
METAR-TAF:

METAR-TAF

Aeroports :

Aeroport de Lanzarote

Lanzarote, Espanya

latitud: 28-57N, longitud: 013-36W, altitud: 14 m

Observació

L'informe es va fer fa 19 minuts, a les 07:30 UTC
Vent 8 kt del Nord
Temperatura 19°C
Humitat 83%
Pressió 1019 hPa
Visibilitat 10 km o més
Escasses núvols a una alçada de 2000 ft
Núvols disperses a una alçada de 3500 ft

METAR: GCRR 190730Z 35008KT 9999 FEW020 SCT035 19/16 Q1019

Hora: 07:49 (07:49 UTC)

Pronòstic

L'informe es va fer fa 5 hores i 49 minuts, a les 02:00 UTC
Pronòstic vàlid del 19 a les 03 UTC al 20 a les 03 UTC
Vent 5 kt del Nord-Oest
Visibilitat 10 km o més
Núvols disperses a una alçada de 3000 ft
Evolucionant progressivament
l' 19 a les 08 UTC al 19 a les 11 UTC
Vent 10 kt del Nord/Nord-Est
Probabilitat 40% :
Temporalment
l' 19 a les 05 UTC al 19 a les 15 UTC
pluja

TAF: GCRR 190200Z 1903/2003 32005KT 9999 SCT030 TX22/1914Z TN15/1906Z BECMG 1908/1911 02010KT PROB40 TEMPO 1905/1915 RA

Observacions i pronòstics meteorològics de més de 4000 aeroports (METAR i TAF).

Les estacions disponibles són els punts grocs i vermells al mapa.

Posi el ratolí al punt desitjat per veure el nom de l'estació.

Feu clic per veure les observacions i els pronòstics meteorològics.

Per canviar el mapa: feu clic els botons verds amb una creu de color negre per apropar; al botó verd amb un guió per allunyar la imatge; o en les fletxes verdes per a mapes adjacents.


METAR-TAF: